createdAt,value
2022-10-19T00:02:21.165Z,100.00
2022-10-19T00:04:51.670Z,100.00
2022-10-19T00:07:22.983Z,100.00
2022-10-19T00:09:51.974Z,100.00
2022-10-19T00:12:22.883Z,100.00
2022-10-19T00:14:53.583Z,100.00
2022-10-19T00:17:24.487Z,100.00
2022-10-19T00:19:53.680Z,100.00
2022-10-19T00:22:23.502Z,100.00
2022-10-19T00:24:51.369Z,100.00
2022-10-19T00:27:21.262Z,100.00
2022-10-19T00:29:51.655Z,100.00
2022-10-19T00:32:36.638Z,100.00
2022-10-19T00:35:06.008Z,100.00
2022-10-19T00:37:51.653Z,100.00
2022-10-19T00:40:33.024Z,100.00
2022-10-19T00:43:03.454Z,100.00
2022-10-19T00:45:35.063Z,100.00
2022-10-19T00:48:12.407Z,100.00
2022-10-19T00:50:43.020Z,100.00
2022-10-19T00:53:15.209Z,100.00
2022-10-19T00:55:49.184Z,100.00
2022-10-19T00:58:19.692Z,100.00
2022-10-19T01:00:56.647Z,100.00
2022-10-19T01:03:26.732Z,100.00
2022-10-19T01:06:04.525Z,100.00
2022-10-19T01:08:38.616Z,100.00
2022-10-19T01:11:35.201Z,100.00
2022-10-19T01:14:17.122Z,100.00
2022-10-19T01:16:55.689Z,100.00
2022-10-19T01:19:23.308Z,100.00
2022-10-19T01:22:34.185Z,100.00
2022-10-19T01:25:32.208Z,100.00
2022-10-19T01:28:24.242Z,100.00
2022-10-19T01:30:59.584Z,100.00
2022-10-19T01:33:47.506Z,100.00
2022-10-19T01:36:25.219Z,100.00
2022-10-19T01:39:39.581Z,100.00
2022-10-19T01:42:32.810Z,100.00
2022-10-19T01:45:10.635Z,100.00
2022-10-19T01:50:38.279Z,100.00
2022-10-19T01:53:15.679Z,100.00
2022-10-19T01:55:44.232Z,100.00
2022-10-19T01:58:29.652Z,100.00
2022-10-19T02:01:14.387Z,100.00
2022-10-19T02:06:36.098Z,100.00
2022-10-19T02:09:12.445Z,100.00
2022-10-19T02:11:52.216Z,100.00
2022-10-19T02:14:28.654Z,100.00
2022-10-19T02:17:08.777Z,100.00
2022-10-19T02:19:39.217Z,100.00
2022-10-19T02:22:09.987Z,100.00
2022-10-19T02:27:26.104Z,100.00
2022-10-19T02:29:57.321Z,100.00
2022-10-19T02:32:35.677Z,100.00
2022-10-19T02:35:04.547Z,100.00
2022-10-19T02:37:38.835Z,100.00
2022-10-19T02:40:37.185Z,100.00
2022-10-19T02:43:12.877Z,100.00
2022-10-19T02:45:47.587Z,100.00
2022-10-19T02:48:22.143Z,100.00
2022-10-19T02:50:52.855Z,100.00
2022-10-19T02:53:25.779Z,100.00
2022-10-19T02:55:54.594Z,100.00
2022-10-19T02:58:26.905Z,100.00
2022-10-19T03:01:12.078Z,100.00
2022-10-19T03:04:02.533Z,100.00
2022-10-19T03:06:36.250Z,100.00
2022-10-19T03:09:10.778Z,100.00
2022-10-19T03:11:43.373Z,100.00
2022-10-19T03:14:15.937Z,100.00
2022-10-19T03:16:47.397Z,100.00
2022-10-19T03:19:17.722Z,100.00
2022-10-19T03:21:49.317Z,100.00
2022-10-19T03:24:27.084Z,100.00
2022-10-19T03:26:56.143Z,100.00
2022-10-19T03:29:27.112Z,100.00
2022-10-19T03:32:04.969Z,100.00
2022-10-19T03:34:35.786Z,100.00
2022-10-19T03:37:04.613Z,100.00
2022-10-19T03:39:37.872Z,100.00
2022-10-19T03:42:11.588Z,100.00
2022-10-19T03:44:41.455Z,100.00
2022-10-19T03:47:11.368Z,100.00
2022-10-19T03:49:46.996Z,100.00
2022-10-19T03:52:17.468Z,100.00
2022-10-19T03:54:48.300Z,100.00
2022-10-19T03:57:24.650Z,100.00
2022-10-19T03:59:55.955Z,100.00
2022-10-19T04:02:26.900Z,100.00
2022-10-19T04:04:57.773Z,100.00
2022-10-19T04:07:31.206Z,100.00
2022-10-19T04:10:05.757Z,100.00
2022-10-19T04:12:36.189Z,100.00
2022-10-19T04:15:11.948Z,100.00
2022-10-19T04:17:48.532Z,100.00
2022-10-19T04:20:20.264Z,100.00
2022-10-19T04:22:56.327Z,100.00
2022-10-19T04:25:33.926Z,100.00
2022-10-19T04:28:10.426Z,100.00
2022-10-19T04:30:53.202Z,100.00
2022-10-19T04:33:23.446Z,100.00
2022-10-19T04:35:53.795Z,100.00
2022-10-19T04:38:24.371Z,100.00
2022-10-19T04:40:53.973Z,100.00
2022-10-19T04:43:25.918Z,100.00
2022-10-19T04:46:02.431Z,100.00
2022-10-19T04:48:33.800Z,100.00
2022-10-19T04:51:04.065Z,100.00
2022-10-19T04:53:38.205Z,100.00
2022-10-19T04:56:08.203Z,100.00
2022-10-19T04:58:39.567Z,100.00
2022-10-19T05:01:10.528Z,100.00
2022-10-19T05:03:49.609Z,100.00
2022-10-19T05:06:18.925Z,100.00
2022-10-19T05:08:48.406Z,100.00
2022-10-19T05:11:17.124Z,100.00
2022-10-19T05:13:53.543Z,100.00
2022-10-19T05:16:29.433Z,100.00
2022-10-19T05:19:02.033Z,100.00
2022-10-19T05:21:34.412Z,100.00
2022-10-19T05:24:07.687Z,100.00
2022-10-19T05:26:36.468Z,100.00
2022-10-19T05:29:07.851Z,100.00
2022-10-19T05:31:42.540Z,100.00
2022-10-19T05:34:19.009Z,100.00
2022-10-19T05:36:51.081Z,100.00
2022-10-19T05:39:22.562Z,100.00
2022-10-19T05:41:57.905Z,100.00
2022-10-19T05:44:41.121Z,100.00
2022-10-19T05:47:17.914Z,100.00
2022-10-19T05:49:51.467Z,100.00
2022-10-19T05:52:21.892Z,100.00
2022-10-19T05:55:01.021Z,100.00
2022-10-19T05:57:33.390Z,100.00
2022-10-19T06:00:04.960Z,100.00
2022-10-19T06:02:59.032Z,100.00
2022-10-19T06:05:33.165Z,100.00
2022-10-19T06:08:07.671Z,100.00
2022-10-19T06:10:52.914Z,100.00
2022-10-19T06:13:23.567Z,100.00
2022-10-19T06:15:53.991Z,100.00
2022-10-19T06:18:26.365Z,100.00
2022-10-19T06:20:56.416Z,100.00
2022-10-19T06:23:26.817Z,100.00
2022-10-19T06:26:00.571Z,100.00
2022-10-19T06:28:33.605Z,100.00
2022-10-19T06:31:09.174Z,100.00
2022-10-19T06:33:48.519Z,100.00
2022-10-19T06:36:24.855Z,100.00
2022-10-19T06:38:55.923Z,100.00
2022-10-19T06:41:27.390Z,100.00
2022-10-19T06:43:56.075Z,100.00
2022-10-19T06:46:31.038Z,100.00
2022-10-19T06:49:03.831Z,100.00
2022-10-19T06:51:34.688Z,100.00
2022-10-19T06:54:08.811Z,100.00
2022-10-19T06:56:38.102Z,100.00
2022-10-19T06:59:10.145Z,100.00
2022-10-19T07:01:42.052Z,100.00
2022-10-19T07:04:22.116Z,100.00
2022-10-19T07:06:51.367Z,100.00
2022-10-19T07:09:25.020Z,100.00
2022-10-19T07:11:57.387Z,100.00
2022-10-19T07:14:31.092Z,100.00
2022-10-19T07:17:11.092Z,100.00
2022-10-19T07:19:42.941Z,100.00
2022-10-19T07:22:17.319Z,100.00
2022-10-19T07:24:56.772Z,100.00
2022-10-19T07:27:35.267Z,100.00
2022-10-19T07:30:07.778Z,100.00
2022-10-19T07:32:47.083Z,100.00
2022-10-19T07:35:25.931Z,100.00
2022-10-19T07:37:56.183Z,100.00
2022-10-19T07:40:26.366Z,100.00
2022-10-19T07:43:02.536Z,100.00
2022-10-19T07:45:40.098Z,100.00
2022-10-19T07:48:12.844Z,100.00
2022-10-19T07:50:48.941Z,100.00
2022-10-19T07:53:20.976Z,100.00
2022-10-19T07:55:50.916Z,100.00
2022-10-19T07:58:24.215Z,100.00
2022-10-19T08:06:36.641Z,100.00
2022-10-19T08:09:15.616Z,100.00
2022-10-19T08:12:03.078Z,100.00
2022-10-19T08:14:30.840Z,100.00
2022-10-19T08:17:08.245Z,100.00
2022-10-19T08:19:43.747Z,100.00
2022-10-19T08:22:18.407Z,100.00
2022-10-19T08:24:47.532Z,100.00
2022-10-19T08:27:17.589Z,100.00
2022-10-19T08:29:51.136Z,100.00
2022-10-19T08:32:24.106Z,100.00
2022-10-19T08:34:54.791Z,100.00
2022-10-19T08:37:43.779Z,100.00
2022-10-19T08:40:26.638Z,100.00
2022-10-19T08:43:13.986Z,100.00
2022-10-19T08:46:02.570Z,100.00
2022-10-19T08:48:43.978Z,100.00
2022-10-19T08:51:19.517Z,100.00
2022-10-19T08:54:00.894Z,100.00
2022-10-19T08:56:51.036Z,100.00
2022-10-19T08:59:38.199Z,100.00
2022-10-19T09:02:14.788Z,100.00
2022-10-19T09:04:54.931Z,100.00
2022-10-19T09:07:46.389Z,100.00
2022-10-19T09:10:21.413Z,100.00
2022-10-19T09:13:24.912Z,100.00
2022-10-19T09:15:57.537Z,100.00
2022-10-19T09:18:29.378Z,100.00
2022-10-19T09:21:01.358Z,100.00
2022-10-19T09:23:42.541Z,100.00
2022-10-19T09:26:19.529Z,100.00
2022-10-19T09:28:54.516Z,100.00
2022-10-19T09:31:40.798Z,100.00
2022-10-19T09:34:37.127Z,100.00
2022-10-19T09:37:21.766Z,100.00
2022-10-19T09:40:00.886Z,100.00
2022-10-19T09:42:35.620Z,100.00
2022-10-19T09:45:16.503Z,100.00
2022-10-19T09:48:13.117Z,100.00
2022-10-19T09:51:04.786Z,100.00
2022-10-19T09:53:42.642Z,100.00
2022-10-19T09:56:31.050Z,100.00
2022-10-19T09:59:07.549Z,100.00
2022-10-19T10:01:45.522Z,100.00
2022-10-19T10:04:26.362Z,100.00
2022-10-19T10:06:57.848Z,100.00
2022-10-19T10:09:38.576Z,100.00
2022-10-19T10:12:15.726Z,100.00
2022-10-19T10:14:47.073Z,100.00
2022-10-19T10:17:22.097Z,100.00
2022-10-19T10:20:17.528Z,100.00
2022-10-19T10:23:06.276Z,100.00
2022-10-19T10:25:36.394Z,100.00
2022-10-19T10:28:15.118Z,100.00
2022-10-19T10:30:43.039Z,100.00
2022-10-19T10:33:43.786Z,100.00
2022-10-19T10:36:21.992Z,100.00
2022-10-19T10:42:01.849Z,100.00
2022-10-19T10:44:31.334Z,100.00
2022-10-19T10:47:17.229Z,100.00
2022-10-19T10:49:59.608Z,100.00
2022-10-19T10:52:37.531Z,100.00
2022-10-19T10:55:22.143Z,100.00
2022-10-19T10:57:56.962Z,100.00
2022-10-19T11:00:27.564Z,100.00
2022-10-19T11:03:18.353Z,100.00
2022-10-19T11:05:49.293Z,100.00
2022-10-19T11:08:35.388Z,100.00
2022-10-19T11:11:18.487Z,100.00
2022-10-19T11:14:02.725Z,100.00
2022-10-19T11:19:31.592Z,100.00
2022-10-19T11:22:24.958Z,100.00
2022-10-19T11:25:15.337Z,100.00
2022-10-19T11:28:23.911Z,100.00
2022-10-19T11:31:17.475Z,100.00
2022-10-19T11:34:06.542Z,100.00
2022-10-19T11:40:08.573Z,100.00
2022-10-19T11:42:42.658Z,100.00
2022-10-19T11:45:32.548Z,100.00
2022-10-19T11:48:25.228Z,100.00
2022-10-19T11:51:20.946Z,100.00
2022-10-19T11:54:03.904Z,100.00
2022-10-19T11:57:07.307Z,100.00
2022-10-19T12:00:14.140Z,100.00
2022-10-19T12:03:03.747Z,100.00
2022-10-19T12:05:58.134Z,100.00
2022-10-19T12:08:49.175Z,89.13
2022-10-19T12:11:54.466Z,83.17
2022-10-19T12:14:28.460Z,72.07
2022-10-19T12:17:06.055Z,75.47
2022-10-19T12:19:44.079Z,66.92
2022-10-19T12:22:27.692Z,72.85
2022-10-19T12:25:04.376Z,79.89
2022-10-19T12:27:40.444Z,74.75
2022-10-19T12:30:33.472Z,80.32
2022-10-19T12:33:31.205Z,90.56
2022-10-19T12:36:15.970Z,100.00
2022-10-19T12:38:48.189Z,100.00
2022-10-19T12:41:27.777Z,99.04
2022-10-19T12:44:09.897Z,78.89
2022-10-19T12:46:49.810Z,76.16
2022-10-19T12:49:30.390Z,75.16
2022-10-19T12:52:09.903Z,67.39
2022-10-19T12:54:46.285Z,65.08
2022-10-19T12:57:48.316Z,66.79
2022-10-19T13:00:30.644Z,66.92
2022-10-19T13:03:15.497Z,72.21
2022-10-19T13:05:46.421Z,72.75
2022-10-19T13:08:29.091Z,71.90
2022-10-19T13:11:09.748Z,69.03
2022-10-19T13:14:05.408Z,71.58
2022-10-19T13:16:43.589Z,72.28
2022-10-19T13:19:31.698Z,71.48
2022-10-19T13:22:09.310Z,73.71
2022-10-19T13:24:49.749Z,91.58
2022-10-19T13:27:28.339Z,100.00
2022-10-19T13:29:59.760Z,100.00
2022-10-19T13:32:38.618Z,100.00
2022-10-19T13:35:35.217Z,100.00
2022-10-19T13:38:22.949Z,100.00
2022-10-19T13:40:53.808Z,100.00
2022-10-19T13:43:24.294Z,100.00
2022-10-19T13:46:14.346Z,100.00
2022-10-19T13:49:06.030Z,100.00
2022-10-19T13:51:57.687Z,100.00
2022-10-19T13:54:33.477Z,100.00
2022-10-19T13:57:23.033Z,100.00
2022-10-19T14:00:22.521Z,100.00
2022-10-19T14:03:12.816Z,100.00
2022-10-19T14:06:06.684Z,100.00
2022-10-19T14:08:54.926Z,100.00
2022-10-19T14:11:37.153Z,100.00
2022-10-19T14:14:16.517Z,100.00
2022-10-19T14:17:06.982Z,100.00
2022-10-19T14:19:53.205Z,100.00
2022-10-19T14:22:30.919Z,100.00
2022-10-19T14:25:23.163Z,100.00
2022-10-19T14:28:12.206Z,100.00
2022-10-19T14:30:43.536Z,100.00
2022-10-19T14:33:18.158Z,100.00
2022-10-19T14:35:50.305Z,100.00
2022-10-19T14:38:39.149Z,100.00
2022-10-19T14:41:20.055Z,100.00
2022-10-19T14:44:00.620Z,100.00
2022-10-19T14:46:35.669Z,100.00
2022-10-19T14:49:12.473Z,100.00
2022-10-19T14:52:01.559Z,100.00
2022-10-19T14:54:46.430Z,100.00
2022-10-19T14:57:16.444Z,100.00
2022-10-19T14:59:46.986Z,100.00
2022-10-19T15:02:38.850Z,100.00
2022-10-19T15:05:10.472Z,100.00
2022-10-19T15:07:43.312Z,100.00
2022-10-19T15:10:35.615Z,100.00
2022-10-19T15:13:06.725Z,100.00
2022-10-19T15:15:39.960Z,100.00
2022-10-19T15:18:43.844Z,100.00
2022-10-19T15:21:29.373Z,100.00
2022-10-19T15:24:41.232Z,100.00
2022-10-19T15:27:14.693Z,100.00
2022-10-19T15:29:57.747Z,100.00
2022-10-19T15:32:28.278Z,100.00
2022-10-19T15:34:59.620Z,100.00
2022-10-19T15:37:30.527Z,100.00
2022-10-19T15:40:01.689Z,100.00
2022-10-19T15:42:41.123Z,100.00
2022-10-19T15:45:30.670Z,100.00
2022-10-19T15:48:31.601Z,100.00
2022-10-19T15:51:00.272Z,100.00
2022-10-19T15:53:30.597Z,100.00
2022-10-19T15:58:40.041Z,100.00
2022-10-19T16:01:21.229Z,100.00
2022-10-19T16:03:55.911Z,100.00
2022-10-19T16:06:27.343Z,100.00
2022-10-19T16:08:57.564Z,100.00
2022-10-19T16:11:29.013Z,100.00
2022-10-19T16:13:57.241Z,100.00
2022-10-19T16:17:09.300Z,100.00
2022-10-19T16:19:40.015Z,100.00
2022-10-19T16:22:08.517Z,100.00
2022-10-19T16:24:44.520Z,100.00
2022-10-19T16:27:17.821Z,100.00
2022-10-19T16:29:53.760Z,100.00
2022-10-19T16:32:24.269Z,100.00
2022-10-19T16:35:01.641Z,100.00
2022-10-19T16:37:29.426Z,100.00
2022-10-19T16:40:07.028Z,100.00
2022-10-19T16:42:44.815Z,100.00
2022-10-19T16:45:16.994Z,100.00
2022-10-19T16:47:47.333Z,100.00
2022-10-19T16:50:22.309Z,100.00
2022-10-19T16:53:04.049Z,100.00
2022-10-19T16:55:31.860Z,100.00
2022-10-19T17:00:47.415Z,100.00
2022-10-19T17:03:18.717Z,100.00
2022-10-19T17:05:58.527Z,100.00
2022-10-19T17:08:36.614Z,100.00
2022-10-19T17:11:19.409Z,100.00
2022-10-19T17:14:06.657Z,100.00
2022-10-19T17:16:37.328Z,100.00
2022-10-19T17:21:54.833Z,100.00
2022-10-19T17:24:27.216Z,100.00
2022-10-19T17:26:55.322Z,100.00
2022-10-19T17:32:11.105Z,100.00
2022-10-19T17:34:44.299Z,100.00
2022-10-19T17:37:14.131Z,100.00
2022-10-19T17:39:50.578Z,100.00
2022-10-19T17:42:23.641Z,100.00
2022-10-19T17:44:54.490Z,100.00
2022-10-19T17:47:25.475Z,100.00
2022-10-19T17:49:55.642Z,100.00
2022-10-19T17:52:31.571Z,100.00
2022-10-19T17:55:18.239Z,100.00
2022-10-19T17:57:50.816Z,100.00
2022-10-19T18:00:21.847Z,100.00
2022-10-19T18:02:50.328Z,100.00
2022-10-19T18:05:22.435Z,100.00
2022-10-19T18:07:56.413Z,100.00
2022-10-19T18:10:28.952Z,100.00
2022-10-19T18:12:59.515Z,100.00
2022-10-19T18:15:36.866Z,100.00
2022-10-19T18:18:12.717Z,100.00
2022-10-19T18:20:41.492Z,100.00
2022-10-19T18:23:10.483Z,100.00
2022-10-19T18:28:32.484Z,100.00
2022-10-19T18:31:23.997Z,100.00
2022-10-19T18:33:59.433Z,100.00
2022-10-19T18:36:31.191Z,100.00
2022-10-19T18:39:05.232Z,100.00
2022-10-19T18:41:33.960Z,100.00
2022-10-19T18:44:14.465Z,100.00
2022-10-19T18:46:46.229Z,100.00
2022-10-19T18:49:16.772Z,100.00
2022-10-19T18:51:50.753Z,100.00
2022-10-19T18:54:24.646Z,100.00
2022-10-19T18:57:07.092Z,100.00
2022-10-19T18:59:37.125Z,100.00
2022-10-19T19:02:13.701Z,100.00
2022-10-19T19:04:53.721Z,100.00
2022-10-19T19:07:34.690Z,100.00
2022-10-19T19:10:07.753Z,100.00
2022-10-19T19:12:39.879Z,100.00
2022-10-19T19:15:10.601Z,100.00
2022-10-19T19:17:45.030Z,100.00
2022-10-19T19:20:15.505Z,100.00
2022-10-19T19:22:46.928Z,100.00
2022-10-19T19:25:17.671Z,100.00
2022-10-19T19:27:51.675Z,100.00
2022-10-19T19:30:23.830Z,100.00
2022-10-19T19:32:58.874Z,100.00
2022-10-19T19:35:42.727Z,100.00
2022-10-19T19:38:14.549Z,100.00
2022-10-19T19:40:51.599Z,100.00
2022-10-19T19:43:23.051Z,100.00
2022-10-19T19:46:07.914Z,100.00
2022-10-19T19:48:43.641Z,100.00
2022-10-19T19:51:13.979Z,100.00
2022-10-19T19:53:45.106Z,100.00
2022-10-19T19:56:21.559Z,100.00
2022-10-19T19:58:52.879Z,100.00
2022-10-19T20:01:29.750Z,100.00
2022-10-19T20:04:06.497Z,100.00
2022-10-19T20:06:47.854Z,100.00
2022-10-19T20:09:19.587Z,100.00
2022-10-19T20:11:50.466Z,100.00
2022-10-19T20:14:27.824Z,100.00
2022-10-19T20:16:55.395Z,100.00
2022-10-19T20:19:29.366Z,100.00
2022-10-19T20:22:00.268Z,100.00
2022-10-19T20:24:33.034Z,100.00
2022-10-19T20:27:06.235Z,100.00
2022-10-19T20:29:42.105Z,100.00
2022-10-19T20:32:12.715Z,100.00
2022-10-19T20:34:49.682Z,100.00
2022-10-19T20:37:20.452Z,100.00
2022-10-19T20:39:51.987Z,100.00
2022-10-19T20:42:22.687Z,100.00
2022-10-19T20:44:57.208Z,100.00
2022-10-19T20:50:17.078Z,100.00
2022-10-19T20:52:49.261Z,100.00
2022-10-19T20:55:22.410Z,100.00
2022-10-19T20:57:50.362Z,100.00
2022-10-19T21:00:21.676Z,100.00
2022-10-19T21:02:55.887Z,100.00
2022-10-19T21:05:29.049Z,100.00
2022-10-19T21:07:59.528Z,100.00
2022-10-19T21:10:29.271Z,100.00
2022-10-19T21:13:06.819Z,100.00
2022-10-19T21:15:40.865Z,100.00
2022-10-19T21:18:17.401Z,100.00
2022-10-19T21:20:51.751Z,100.00
2022-10-19T21:23:24.999Z,100.00
2022-10-19T21:25:58.184Z,100.00
2022-10-19T21:28:31.408Z,100.00
2022-10-19T21:31:13.641Z,100.00
2022-10-19T21:33:50.083Z,100.00
2022-10-19T21:36:25.311Z,100.00
2022-10-19T21:41:40.633Z,100.00
2022-10-19T21:46:55.511Z,100.00
2022-10-19T21:49:25.919Z,100.00
2022-10-19T21:52:01.961Z,100.00
2022-10-19T21:57:12.527Z,100.00
2022-10-19T21:59:48.895Z,100.00
2022-10-19T22:02:19.708Z,100.00
2022-10-19T22:04:53.176Z,100.00
2022-10-19T22:07:24.675Z,100.00
2022-10-19T22:10:04.440Z,100.00
2022-10-19T22:12:45.443Z,100.00
2022-10-19T22:15:16.070Z,100.00
2022-10-19T22:17:46.663Z,100.00
2022-10-19T22:20:27.206Z,100.00
2022-10-19T22:23:03.266Z,100.00
2022-10-19T22:25:33.805Z,100.00
2022-10-19T22:28:11.125Z,100.00
2022-10-19T22:30:47.997Z,100.00
2022-10-19T22:33:21.584Z,100.00
2022-10-19T22:36:03.210Z,100.00
2022-10-19T22:38:36.959Z,100.00
2022-10-19T22:41:07.273Z,100.00
2022-10-19T22:43:44.292Z,100.00
2022-10-19T22:46:23.524Z,100.00
2022-10-19T22:48:53.501Z,100.00
2022-10-19T22:51:25.157Z,100.00
2022-10-19T22:53:56.469Z,100.00
2022-10-19T22:56:36.873Z,100.00
2022-10-19T22:59:14.119Z,100.00
2022-10-19T23:01:44.963Z,100.00
2022-10-19T23:04:21.698Z,100.00
2022-10-19T23:07:06.555Z,100.00
2022-10-19T23:09:43.475Z,100.00
2022-10-19T23:12:24.929Z,100.00
2022-10-19T23:14:57.471Z,100.00
2022-10-19T23:17:27.318Z,100.00
2022-10-19T23:19:58.762Z,100.00
2022-10-19T23:22:31.954Z,100.00
2022-10-19T23:25:05.954Z,100.00
2022-10-19T23:27:45.135Z,100.00
2022-10-19T23:30:20.276Z,100.00
2022-10-19T23:32:50.536Z,100.00
2022-10-19T23:35:19.947Z,100.00
2022-10-19T23:37:50.368Z,100.00
2022-10-19T23:40:23.939Z,100.00
2022-10-19T23:42:54.549Z,100.00
2022-10-19T23:45:25.266Z,100.00
2022-10-19T23:47:53.233Z,100.00
2022-10-19T23:50:21.036Z,100.00
2022-10-19T23:52:51.633Z,100.00
2022-10-19T23:55:22.526Z,100.00
2022-10-19T23:57:59.864Z,100.00
